Hamburg, South Africa
Current Conditions -  °F | °C
As of 4:31 PM on Saturday 25 Oct 2014 (Local Time) from FAPE Reporting Station
Moderate Rain Moderate Rain  
Wind Chill: 61°   Ceiling: 500
Heat Index: 61°   Visibility: 2.5mi
Dew Point: 59°   Wind: 9mph
Humidity: 94%   Direction: 120°ESE
Pressure: 30.24"   Gusts: NA
Location:  33.29°S, 27.46°E
Report Text: FAPE 251431Z 12008KT 090V150 4000 RA BKN005 BKN020 16/15 Q1024 TEMPO 8000 BKN008
Loading
Personal Weather Stations






























Interactive Weather Map
Tropical Storm Tracking
New forecast layout! Learn more

10-Day Weather Forecast

Advertisements
Track Severe Weather on mobile